Search the data

BODC Cruise Metadata Report for RRS John Biscoe cruise JB08

Introduction

This report collates information from the BODC cruise inventory and oceanographic databases. It presents

Cruise Inventory Information

Long name RRS John Biscoe cruise JB08
Short name JB08
Objectives and Narrative The principal objective of this cruise was the study of microbial particulate material, more specifically:
1) A study of bacterial production and activity
2) Examination of microbial grazing in area of South Georgia
In addition the ongoing, more general aims of the OBP were addressed:
1) Studies in phytoplankton ecology
2) Horizontal profiling of physical and chemical parameters; both on station and on passage
3) Collection of krill samples for ongoing studies
Ship RRS John Biscoe
Departure Port Montevideo, Uruguay
Departure Date 1987-12-28
Arrival Port Stanley, Falkland Islands (Malvinas)
Arrival Date 1988-03-11
Principal Scientist(s) Julian Priddle (British Antarctic Survey)
Responsible Organisation Department of Fisheries and Oceans, Canada
Associated Project(s) Offshore Biological Programme
IHB Sea Areas Visited South Atlantic Ocean
Marsden Squares Visited 411/412/447/448/483/484/485/521/522
Work Area Description Southern Ocean
Work Area Bounding Polygon 70S,70W; 30S,70W; 30S,30W; 70S,30W; 70S,70W
Southern Limit 70S
Northern Limit 30S
Western Limit 70W
Eastern Limit 30W

Cruise Inventory Datasets

No information on datasets is currently available for this cruise

Cruise Inventory Mooring/Buoy Operations

No information on datasets is currently available

Summary of BODC Data Holdings for the Cruise

National Oceanographic Database

Summary

# Series Instrument Description Parameters
145 CTD/STD cast Salinity of the water column
Temperature of the water column
Vertical spatial coordinates

Note: Parameter terms are taken from the BODC Parameter Discovery Vocabulary XML (SKOS)

Full List

BODC Reference Instrument Description Date/Time Location  
276763 CTD/STD cast 1987-12-28 18:31Z to 1987-12-28 18:55Z 51° 30' S, 39° 4' W Click for more
276775 CTD/STD cast 1988-01-03 16:34Z to 1988-01-03 17:20Z 54° 17' S, 32° 42' W Click for more
276787 CTD/STD cast 1988-01-06 20:13Z to 1988-01-06 21:00Z 54° 53' S, 33° 16' W Click for more
276799 CTD/STD cast 1988-01-16 09:05Z to 1988-01-16 09:26Z 54° 12' S, 40° 52' W Click for more
276806 CTD/STD cast 1988-01-16 10:10Z to 1988-01-16 10:35Z 54° 12' S, 40° 43' W Click for more
276818 CTD/STD cast 1988-01-16 11:30Z to 1988-01-16 11:50Z 54° 12' S, 40° 32' W Click for more
276831 CTD/STD cast 1988-01-16 13:03Z to 1988-01-16 13:30Z 54° 17' S, 40° 33' W Click for more
276843 CTD/STD cast 1988-01-16 16:54Z to 1988-01-16 18:12Z 54° 16' S, 40° 42' W Click for more
276855 CTD/STD cast 1988-01-16 19:53Z to 1988-01-16 20:21Z 54° 18' S, 40° 51' W Click for more
276867 CTD/STD cast 1988-01-16 21:10Z to 1988-01-16 21:28Z 54° 22' S, 40° 51' W Click for more
276879 CTD/STD cast 1988-01-16 22:10Z to 1988-01-16 22:43Z 54° 22' S, 40° 41' W Click for more
276880 CTD/STD cast 1988-01-16 23:26Z to 1988-01-16 23:47Z 54° 22' S, 40° 33' W Click for more
276892 CTD/STD cast 1988-01-17 02:48Z to 1988-01-17 03:30Z 54° 16' S, 40° 40' W Click for more
276911 CTD/STD cast 1988-01-17 12:07Z to 1988-01-17 12:55Z 54° 18' S, 40° 42' W Click for more
276923 CTD/STD cast 1988-01-17 14:35Z to 1988-01-17 15:08Z 54° 17' S, 40° 43' W Click for more
276935 CTD/STD cast 1988-01-17 18:46Z to 1988-01-17 19:07Z 54° 18' S, 40° 44' W Click for more
276947 CTD/STD cast 1988-01-18 09:06Z to 1988-01-18 09:27Z 54° 28' S, 40° 51' W Click for more
276959 CTD/STD cast 1988-01-18 10:13Z to 1988-01-18 10:32Z 54° 28' S, 40° 39' W Click for more
276960 CTD/STD cast 1988-01-18 11:13Z to 1988-01-18 11:35Z 54° 28' S, 40° 33' W Click for more
276972 CTD/STD cast 1988-01-18 12:54Z to 1988-01-18 13:11Z 54° 33' S, 40° 33' W Click for more
276984 CTD/STD cast 1988-01-18 16:29Z to 1988-01-18 17:49Z 54° 33' S, 40° 41' W Click for more
276996 CTD/STD cast 1988-01-18 19:52Z to 1988-01-18 20:21Z 54° 34' S, 40° 51' W Click for more
277011 CTD/STD cast 1988-01-18 20:51Z to 1988-01-18 21:36Z 54° 39' S, 40° 51' W Click for more
277023 CTD/STD cast 1988-01-18 22:39Z to 1988-01-18 23:02Z 54° 40' S, 40° 41' W Click for more
277035 CTD/STD cast 1988-01-18 23:26Z to 1988-01-19 00:06Z 54° 39' S, 40° 36' W Click for more
277047 CTD/STD cast 1988-01-19 02:36Z to 1988-01-19 03:08Z 54° 33' S, 40° 41' W Click for more
277059 CTD/STD cast 1988-01-19 09:06Z to 1988-01-19 09:56Z 54° 33' S, 40° 42' W Click for more
277060 CTD/STD cast 1988-01-19 12:11Z to 1988-01-19 12:37Z 54° 33' S, 40° 42' W Click for more
277072 CTD/STD cast 1988-01-19 14:20Z to 1988-01-19 16:02Z 54° 35' S, 40° 25' W Click for more
277084 CTD/STD cast 1988-01-19 19:37Z to 1988-01-19 19:57Z 54° 34' S, 40° 42' W Click for more
277096 CTD/STD cast 1988-01-20 07:05Z to 1988-01-20 07:25Z 54° 39' S, 40° 23' W Click for more
277103 CTD/STD cast 1988-01-20 09:00Z to 1988-01-20 09:19Z 54° 37' S, 40° 12' W Click for more
277115 CTD/STD cast 1988-01-20 10:34Z to 1988-01-20 10:58Z 54° 37' S, 40° 3' W Click for more
277127 CTD/STD cast 1988-01-20 11:42Z to 1988-01-20 12:06Z 54° 33' S, 40° 4' W Click for more
277139 CTD/STD cast 1988-01-20 13:00Z to 1988-01-20 13:20Z 54° 33' S, 40° 15' W Click for more
277140 CTD/STD cast 1988-01-20 14:00Z to 1988-01-20 14:20Z 54° 33' S, 40° 22' W Click for more
277152 CTD/STD cast 1988-01-20 19:03Z to 1988-01-20 19:14Z 54° 28' S, 40° 6' W Click for more
277164 CTD/STD cast 1988-01-21 00:05Z to 1988-01-21 00:20Z 54° 28' S, 40° 25' W Click for more
277176 CTD/STD cast 1988-01-21 05:55Z to 1988-01-21 06:10Z 54° 16' S, 40° 6' W Click for more
277188 CTD/STD cast 1988-01-21 06:56Z to 1988-01-21 07:15Z 54° 16' S, 40° 16' W Click for more
277207 CTD/STD cast 1988-01-21 08:03Z to 1988-01-21 08:20Z 54° 17' S, 40° 24' W Click for more
277219 CTD/STD cast 1988-01-21 09:22Z to 1988-01-21 09:38Z 54° 12' S, 40° 25' W Click for more
277220 CTD/STD cast 1988-01-21 10:59Z to 1988-01-21 11:17Z 54° 12' S, 40° 15' W Click for more
277232 CTD/STD cast 1988-01-21 12:26Z to 1988-01-21 12:45Z 54° 12' S, 40° 7' W Click for more
277244 CTD/STD cast 1988-01-22 21:08Z to 1988-01-22 23:26Z 56° 42' S, 34° 48' W Click for more
277256 CTD/STD cast 1988-01-25 10:40Z to 1988-01-25 11:18Z 53° 6' S, 38° 36' W Click for more
277268 CTD/STD cast 1988-01-25 12:23Z to 1988-01-25 12:48Z 53° 6' S, 38° 27' W Click for more
277281 CTD/STD cast 1988-01-25 13:46Z to 1988-01-25 14:13Z 53° 0' S, 38° 28' W Click for more
277293 CTD/STD cast 1988-01-25 16:30Z to 1988-01-25 18:15Z 53° 1' S, 38° 35' W Click for more
277300 CTD/STD cast 1988-01-25 19:10Z to 1988-01-25 19:31Z 53° 0' S, 38° 45' W Click for more
277312 CTD/STD cast 1988-01-25 20:28Z to 1988-01-25 20:49Z 52° 54' S, 38° 45' W Click for more
277324 CTD/STD cast 1988-01-25 21:50Z to 1988-01-25 22:14Z 52° 55' S, 38° 35' W Click for more
277336 CTD/STD cast 1988-01-25 23:05Z to 1988-01-25 23:25Z 52° 55' S, 38° 26' W Click for more
277348 CTD/STD cast 1988-01-26 03:55Z to 1988-01-26 04:22Z 53° 1' S, 38° 36' W Click for more
277361 CTD/STD cast 1988-01-26 09:30Z to 1988-01-26 09:56Z 53° 3' S, 38° 34' W Click for more
277373 CTD/STD cast 1988-01-26 12:43Z to 1988-01-26 13:00Z 53° 4' S, 38° 33' W Click for more
277385 CTD/STD cast 1988-01-26 14:40Z to 1988-01-26 16:37Z 53° 5' S, 38° 33' W Click for more
277397 CTD/STD cast 1988-01-27 16:22Z to 1988-01-27 17:14Z 52° 44' S, 38° 35' W Click for more
277404 CTD/STD cast 1988-01-27 18:30Z to 1988-01-27 18:44Z 52° 45' S, 38° 28' W Click for more
277416 CTD/STD cast 1988-01-27 21:44Z to 1988-01-27 22:20Z 52° 37' S, 38° 43' W Click for more
277428 CTD/STD cast 1988-01-28 04:30Z to 1988-01-28 04:57Z 52° 44' S, 38° 36' W Click for more
277441 CTD/STD cast 1988-01-28 09:00Z to 1988-01-28 09:18Z 52° 44' S, 38° 34' W Click for more
277453 CTD/STD cast 1988-01-28 11:53Z to 1988-01-28 12:23Z 52° 45' S, 38° 34' W Click for more
277465 CTD/STD cast 1988-01-28 14:30Z to 1988-01-28 16:50Z 52° 45' S, 38° 36' W Click for more
277477 CTD/STD cast 1988-01-28 18:00Z to 1988-01-28 18:31Z 52° 45' S, 38° 35' W Click for more
277489 CTD/STD cast 1988-01-28 21:00Z to 1988-01-28 21:21Z 52° 46' S, 38° 37' W Click for more
277490 CTD/STD cast 1988-01-31 20:07Z to 1988-01-31 20:30Z 54° 9' S, 34° 51' W Click for more
277508 CTD/STD cast 1988-01-31 21:26Z to 1988-01-31 21:54Z 54° 9' S, 35° 1' W Click for more
277521 CTD/STD cast 1988-02-01 00:03Z to 1988-02-01 00:24Z 54° 15' S, 35° 10' W Click for more
277533 CTD/STD cast 1988-02-01 01:21Z to 1988-02-01 01:42Z 54° 15' S, 35° 1' W Click for more
277545 CTD/STD cast 1988-02-01 03:15Z to 1988-02-01 03:31Z 54° 15' S, 34° 51' W Click for more
277557 CTD/STD cast 1988-02-01 04:47Z to 1988-02-01 05:05Z 54° 14' S, 34° 42' W Click for more
277569 CTD/STD cast 1988-02-01 06:20Z to 1988-02-01 06:55Z 54° 13' S, 34° 33' W Click for more
277570 CTD/STD cast 1988-02-01 08:18Z to 1988-02-01 08:32Z 54° 15' S, 34° 24' W Click for more
277582 CTD/STD cast 1988-02-01 09:20Z to 1988-02-01 09:40Z 54° 9' S, 34° 24' W Click for more
277594 CTD/STD cast 1988-02-01 16:19Z to 1988-02-01 17:42Z 54° 10' S, 34° 34' W Click for more
277601 CTD/STD cast 1988-02-01 18:40Z to 1988-02-01 18:55Z 54° 9' S, 34° 43' W Click for more
277613 CTD/STD cast 1988-02-01 19:50Z to 1988-02-01 20:05Z 54° 4' S, 34° 42' W Click for more
277625 CTD/STD cast 1988-02-01 22:18Z to 1988-02-01 22:35Z 54° 4' S, 34° 24' W Click for more
277637 CTD/STD cast 1988-02-02 04:07Z to 1988-02-02 04:30Z 54° 7' S, 34° 34' W Click for more
277649 CTD/STD cast 1988-02-02 11:58Z to 1988-02-02 12:20Z 54° 2' S, 35° 5' W Click for more
277650 CTD/STD cast 1988-02-02 14:28Z to 1988-02-02 15:08Z 54° 1' S, 35° 8' W Click for more
277662 CTD/STD cast 1988-02-02 16:25Z to 1988-02-02 16:45Z 54° 0' S, 35° 10' W Click for more
277674 CTD/STD cast 1988-02-02 19:40Z to 1988-02-02 19:40Z 53° 57' S, 35° 15' W Click for more
277686 CTD/STD cast 1988-02-03 08:50Z to 1988-02-03 09:10Z 53° 52' S, 34° 24' W Click for more
277698 CTD/STD cast 1988-02-03 09:55Z to 1988-02-03 10:10Z 53° 47' S, 34° 24' W Click for more
277705 CTD/STD cast 1988-02-03 11:20Z to 1988-02-03 11:42Z 53° 48' S, 34° 34' W Click for more
277717 CTD/STD cast 1988-02-03 12:39Z to 1988-02-03 13:00Z 53° 48' S, 34° 43' W Click for more
277729 CTD/STD cast 1988-02-03 14:08Z to 1988-02-03 14:32Z 53° 52' S, 34° 43' W Click for more
277730 CTD/STD cast 1988-02-03 16:28Z to 1988-02-03 17:15Z 53° 58' S, 34° 52' W Click for more
277742 CTD/STD cast 1988-02-03 18:44Z to 1988-02-03 19:12Z 53° 58' S, 34° 42' W Click for more
277754 CTD/STD cast 1988-02-03 20:02Z to 1988-02-03 20:27Z 53° 58' S, 34° 33' W Click for more
277766 CTD/STD cast 1988-02-03 21:13Z to 1988-02-03 21:36Z 53° 53' S, 34° 33' W Click for more
277778 CTD/STD cast 1988-02-04 00:05Z to 1988-02-04 00:25Z 54° 3' S, 34° 51' W Click for more
277791 CTD/STD cast 1988-02-04 01:46Z to 1988-02-04 02:04Z 54° 3' S, 35° 0' W Click for more
277809 CTD/STD cast 1988-02-04 03:29Z to 1988-02-04 03:48Z 53° 58' S, 34° 51' W Click for more
277810 CTD/STD cast 1988-02-04 09:37Z to 1988-02-04 09:50Z 53° 53' S, 35° 1' W Click for more
277822 CTD/STD cast 1988-02-04 11:00Z to 1988-02-04 11:25Z 53° 52' S, 34° 49' W Click for more
277834 CTD/STD cast 1988-02-04 13:31Z to 1988-02-04 15:28Z 53° 48' S, 34° 52' W Click for more
277846 CTD/STD cast 1988-02-04 17:40Z to 1988-02-04 17:59Z 53° 48' S, 35° 1' W Click for more
277858 CTD/STD cast 1988-02-04 18:46Z to 1988-02-04 19:06Z 53° 48' S, 35° 10' W Click for more
277871 CTD/STD cast 1988-02-05 02:38Z to 1988-02-05 02:59Z 53° 53' S, 35° 9' W Click for more
277883 CTD/STD cast 1988-02-05 04:23Z to 1988-02-05 04:40Z 53° 58' S, 35° 9' W Click for more
277895 CTD/STD cast 1988-02-05 05:47Z to 1988-02-05 06:05Z 53° 58' S, 35° 0' W Click for more
277902 CTD/STD cast 1988-02-05 07:28Z to 1988-02-05 07:44Z 54° 4' S, 35° 10' W Click for more
277914 CTD/STD cast 1988-02-05 17:15Z to 1988-02-05 17:45Z 53° 59' S, 36° 1' W Click for more
277926 CTD/STD cast 1988-02-17 03:24Z to 1988-02-17 04:25Z 53° 20' S, 59° 5' W Click for more
277938 CTD/STD cast 1988-02-17 07:08Z to 1988-02-17 07:40Z 53° 45' S, 58° 58' W Click for more
277951 CTD/STD cast 1988-02-17 10:54Z to 1988-02-17 11:10Z 54° 12' S, 58° 45' W Click for more
277963 CTD/STD cast 1988-02-17 14:15Z to 1988-02-17 14:54Z 54° 38' S, 58° 31' W Click for more
277975 CTD/STD cast 1988-02-17 17:38Z to 1988-02-17 18:53Z 55° 3' S, 58° 18' W Click for more
277987 CTD/STD cast 1988-02-17 21:55Z to 1988-02-17 22:20Z 55° 30' S, 58° 7' W Click for more
277999 CTD/STD cast 1988-02-18 01:09Z to 1988-02-18 03:45Z 55° 55' S, 57° 52' W Click for more
278002 CTD/STD cast 1988-02-18 06:27Z to 1988-02-18 07:30Z 56° 21' S, 57° 40' W Click for more
278014 CTD/STD cast 1988-02-18 19:15Z to 1988-02-18 20:20Z 56° 49' S, 57° 24' W Click for more
278026 CTD/STD cast 1988-02-19 08:41Z to 1988-02-19 09:22Z 57° 14' S, 57° 13' W Click for more
278038 CTD/STD cast 1988-02-19 12:24Z to 1988-02-19 14:27Z 57° 40' S, 56° 58' W Click for more
278051 CTD/STD cast 1988-02-19 18:19Z to 1988-02-19 18:43Z 58° 5' S, 56° 45' W Click for more
278063 CTD/STD cast 1988-02-19 21:40Z to 1988-02-20 01:39Z 58° 31' S, 56° 30' W Click for more
278075 CTD/STD cast 1988-02-20 04:50Z to 1988-02-20 05:19Z 58° 58' S, 56° 16' W Click for more
278087 CTD/STD cast 1988-02-21 01:10Z to 1988-02-21 03:11Z 59° 23' S, 56° 2' W Click for more
278099 CTD/STD cast 1988-02-21 06:05Z to 1988-02-21 06:37Z 59° 49' S, 55° 46' W Click for more
278106 CTD/STD cast 1988-02-21 09:39Z to 1988-02-21 11:36Z 60° 16' S, 55° 33' W Click for more
278118 CTD/STD cast 1988-02-22 19:49Z to 1988-02-22 21:10Z 62° 10' S, 57° 44' W Click for more
278131 CTD/STD cast 1988-02-23 11:21Z to 1988-02-23 11:53Z 63° 5' S, 61° 1' W Click for more
278143 CTD/STD cast 1988-02-23 14:59Z to 1988-02-23 16:00Z 63° 22' S, 61° 50' W Click for more
278155 CTD/STD cast 1988-02-23 19:14Z to 1988-02-23 20:00Z 63° 24' S, 61° 6' W Click for more
278167 CTD/STD cast 1988-02-23 22:48Z to 1988-02-23 23:42Z 63° 28' S, 60° 24' W Click for more
278179 CTD/STD cast 1988-02-24 09:10Z to 1988-02-24 09:35Z 63° 43' S, 61° 13' W Click for more
278180 CTD/STD cast 1988-02-25 17:11Z to 1988-02-25 17:58Z 64° 17' S, 61° 37' W Click for more
278192 CTD/STD cast 1988-02-26 04:07Z to 1988-02-26 04:23Z 64° 15' S, 61° 34' W Click for more
278211 CTD/STD cast 1988-02-26 05:35Z to 1988-02-26 05:55Z 64° 16' S, 61° 44' W Click for more
278223 CTD/STD cast 1988-02-26 13:00Z to 1988-02-26 13:35Z 64° 18' S, 61° 49' W Click for more
278235 CTD/STD cast 1988-02-26 15:47Z to 1988-02-26 16:07Z 64° 19' S, 61° 52' W Click for more
278247 CTD/STD cast 1988-02-27 17:35Z to 1988-02-27 18:16Z 63° 40' S, 62° 30' W Click for more
278259 CTD/STD cast 1988-02-29 16:46Z to 1988-02-29 17:38Z 64° 52' S, 64° 15' W Click for more
278260 CTD/STD cast 1988-02-29 21:59Z to 1988-02-29 22:45Z 64° 30' S, 64° 52' W Click for more
278272 CTD/STD cast 1988-03-01 20:48Z to 1988-03-01 22:00Z 64° 15' S, 61° 36' W Click for more
278284 CTD/STD cast 1988-03-02 07:50Z to 1988-03-02 08:10Z 63° 43' S, 61° 12' W Click for more
278296 CTD/STD cast 1988-03-02 13:45Z to 1988-03-02 14:26Z 63° 28' S, 60° 25' W Click for more
278303 CTD/STD cast 1988-03-02 17:32Z to 1988-03-02 18:20Z 63° 24' S, 61° 7' W Click for more
278315 CTD/STD cast 1988-03-02 22:22Z to 1988-03-02 22:52Z 63° 23' S, 61° 50' W Click for more
278327 CTD/STD cast 1988-03-03 03:15Z to 1988-03-03 03:55Z 63° 6' S, 61° 1' W Click for more
278339 CTD/STD cast 1988-03-08 21:26Z to 1988-03-08 22:27Z 58° 55' S, 44° 21' W Click for more
278340 CTD/STD cast 1988-03-11 02:06Z to 1988-03-11 04:05Z 55° 37' S, 40° 1' W Click for more

Project Database

# Events Gear Type Parameters Held
9 CTD frame plus rosette sampler Ammonium and ammonia concentration parameters in water bodies
Silicate concentration parameters in the water column
Nitrate concentration parameters in the water column
Nitrite concentration parameters in the water column
Phosphate concentration parameters in the water column

Note: Parameter terms are taken from the BODC Parameter Discovery Vocabulary XML (SKOS)

References

Track Charts

Track Chart

Reports

Cruise Report